Rawlins, WY

8:00 AM MDT on July 29, 2014 (GMT -0600)
Downtown (KWYSINCL1) Elev 6611 ft | 41.78 °N, 107.12 °W | Change Station

Current weather conditions updated 6 seconds ago

Mostly Cloudy
Mostly Cloudy
66.8 °F
Feels Like 66.8 °F
N
0.0
Wind Variable Wind from WSW
Gusts 0.0 mph

Today is forecast to be Much Cooler than yesterday. Showers and thunderstorms.

Today
High -- | Low -- °F
--% Chance of Precip.
Yesterday
High -- | Low -- °F
Precip. -- in
6:00 AM 8:30 PM
Waxing Crescent, 6% visible
Pressure 30.02 in
Visibility 10.0 miles
Clouds Mostly Cloudy 11000 ft
Dew Point 52 °F
Humidity 59%
Rainfall 0.00 in
Snow Depth Not available.
UV 0 out of 12
Pollen 4.20 out of 12
Air Quality Not available.
Flu Activity Not available.
METAR KRWL 291253Z AUTO 23007KT 10SM BKN110 18/09 A3034 RMK AO2 SLP165 T01830089

More Conditions Fewer Conditions

Pressure 30.02 in
Visibility 10.0 miles
Clouds Mostly Cloudy 11000 ft
Dew Point 52 °F
Humidity 59%
Rainfall 0.00 in
Snow Depth Not available.
UV 0 out of 12
Pollen 4.20 out of 12
Air Quality Not available.
Flu Activity Not available.
METAR KRWL 291253Z AUTO 23007KT 10SM BKN110 18/09 A3034 RMK AO2 SLP165 T01830089

More Conditions Fewer Conditions

10-Day Weather Forecast

Almanac

Astronomy

Jul. 29, 2014 Rise Set
Actual Time 6:00 AM MDT 8:30 PM MDT
Civil Twilight 5:28 AM MDT 9:01 PM MDT
Nautical Twilight 4:48 AM MDT 9:41 PM MDT
Astronomical Twilight 4:04 AM MDT 10:25 PM MDT
Moon 8:42 AM MDT 9:40 PM MDT
Length of Visible Light 15h 33m
Length of Day
14h 30m
Tomorrow will be 2m 4s shorter.
Waxing Crescent, 6% of the Moon is Illuminated
Today
Waxing Crescent
Aug 3
First Quarter
Aug 10
Full
Aug 17
Last Quarter
Aug 25
New

Today's Extremes

State Highs State Lows

Community

WunderPhotos

Upload Photos

1,738,732 photos uploaded!

Nearby

Snow Depth

Station Depth Elevation
Divide Peak 0 in 8860 ft
Webber Springs 0 in 9250 ft
Old Battle 0 in 9920 ft
Sandstone R.S. 6 in 8150 ft
South Brush Creek 0 in 8440 ft

Earthquake Activity

City Distance Mag. Time & Date
No recent earthquake activity has been reported nearby.
Minimum magnitude displayed is 2.5.

Coastal Water Temperatures

Place Temperature
No Stations Reporting

Nearby Weather Stations

Station Location Temp. Dew Point Humidity Wind Precip. Elev Updated Type
Rawlins, WY 67.3 °F - - WSW  at  0.0 mph 0.00 in / hr 7487 ft 8:00 AM MDT Rapid Fire
Downtown, Sinclair, Wy 66.8 °F 52 °F 59% WSW  at  0.0 mph 0.00 in / hr 6611 ft 8:00 AM MDT Rapid Fire
MesoWest HADSL1 , Rawlins, WY 61 °F - - North  at  - 0.00 in / hr 6860 ft 7:00 AM MDT MADIS
HADS NORTH PLATTE RIVER ABOVE SEMINOE WY, Sinclair, WY 65 °F - - North  at  - 0.00 in / hr 6399 ft 6:45 AM MDT MADIS

Show More Stations Show Fewer Stations